.
WxDataArchive / Data Records for 2006-04-21
2006-04-20 April 2006 2006-04-22

Data Records for Friday, 21 April 2006

Time	Temp	Chill	HIndex	Humid	Dewpt	 Wind 	HiWind	WindDir	Rain 	Barom 
-----	----	-----	------	-----	-----	------	------	-------	-----	----- 
00:00	63.2	63.2	63.2	79	56.6	0	2	248	0.00	29.846 
00:05	63.1	63.1	63.1	80	56.8	0	2	248	0.00	29.846 
00:10	62.9	62.9	62.9	80	56.6	0	1	248	0.00	29.846 
00:15	62.6	62.6	62.6	81	56.7	0	1	248	0.00	29.850 
00:20	62.4	62.4	62.4	81	56.5	0	1	248	0.00	29.850 
00:25	62.3	62.3	62.3	81	56.4	0	2	248	0.00	29.850 
00:30	62.1	62.1	62.1	82	56.5	0	2	248	0.00	29.856 
00:35	62.0	62.0	62.0	82	56.4	0	1	248	0.00	29.856 
00:40	62.0	62.0	62.0	83	56.8	1	2	248	0.00	29.856 
00:45	62.0	62.0	62.0	83	56.8	1	2	248	0.00	29.858 
00:50	61.8	61.8	61.8	83	56.6	1	3	248	0.00	29.858 
00:55	61.8	61.8	61.8	83	56.6	1	5	248	0.00	29.858 
01:00	61.8	61.8	61.8	84	56.9	1	5	270	0.00	29.860 
01:05	61.8	61.8	61.8	83	56.6	0	3	248	0.00	29.860 
01:10	61.8	61.8	61.8	84	56.9	0	1	248	0.00	29.860 
01:15	61.8	61.8	61.8	84	56.9	1	3	248	0.00	29.858 
01:20	61.8	61.8	61.8	84	56.9	1	2	248	0.00	29.858 
01:25	61.6	61.6	61.6	84	56.7	0	2	248	0.00	29.858 
01:30	61.6	61.6	61.6	84	56.7	1	3	248	0.00	29.856 
01:35	61.6	61.6	61.6	84	56.7	1	3	248	0.00	29.856 
01:40	61.6	61.6	61.6	84	56.7	1	2	248	0.00	29.856 
01:45	61.6	61.6	61.6	84	56.7	1	3	248	0.00	29.855 
01:50	61.6	61.6	61.6	84	56.7	0	2	248	0.00	29.855 
01:55	61.6	61.6	61.6	84	56.7	1	3	248	0.00	29.855 
02:00	61.6	61.6	61.6	84	56.7	1	4	248	0.00	29.856 
02:05	61.6	61.6	61.6	84	56.7	1	3	248	0.00	29.856 
02:10	61.5	61.5	61.5	84	56.6	1	3	248	0.00	29.856 
02:15	61.3	61.3	61.3	84	56.4	1	2	248	0.00	29.853 
02:20	61.2	61.2	61.2	85	56.6	1	3	248	0.00	29.853 
02:25	61.0	61.0	61.0	84	56.1	0	2	248	0.00	29.853 
02:30	60.7	60.7	60.7	86	56.5	1	2	248	0.00	29.853 
02:35	60.5	60.5	60.5	86	56.3	0	1	248	0.00	29.853 
02:40	60.5	60.5	60.5	86	56.3	0	1	248	0.00	29.853 
02:45	60.2	60.2	60.2	86	56.0	0	0	---	0.00	29.856 
02:50	59.9	59.9	59.9	87	56.0	0	1	248	0.00	29.856 
02:55	59.6	59.6	59.6	87	55.7	0	1	248	0.00	29.856 
03:00	59.3	59.3	59.3	87	55.4	0	0	---	0.00	29.854 
03:05	59.2	59.2	59.2	88	55.6	0	1	248	0.00	29.854 
03:10	58.9	58.9	58.9	88	55.3	0	0	---	0.00	29.854 
03:15	58.6	58.6	58.6	88	55.1	0	0	---	0.00	29.854 
03:20	58.3	58.3	58.3	88	54.8	0	0	---	0.00	29.854 
03:25	57.8	57.8	57.8	89	54.6	0	0	---	0.00	29.854 
03:30	57.6	57.6	57.6	90	54.7	0	0	---	0.00	29.855 
03:35	57.5	57.5	57.5	90	54.6	0	0	---	0.00	29.855 
03:40	57.2	57.2	57.2	90	54.3	0	0	---	0.00	29.855 
03:45	57.0	57.0	57.0	91	54.4	0	0	---	0.00	29.857 
03:50	56.9	56.9	56.9	92	54.6	0	0	---	0.00	29.857 
03:55	56.6	56.6	56.6	91	54.0	0	0	---	0.00	29.857 
04:00	56.3	56.3	56.3	91	53.7	0	0	---	0.00	29.856 
04:05	56.2	56.2	56.2	92	53.9	0	0	---	0.00	29.856 
04:10	56.2	56.2	56.2	92	53.9	0	0	---	0.00	29.856 
04:15	56.0	56.0	56.0	92	53.7	0	0	---	0.00	29.856 
04:20	55.7	55.7	55.7	92	53.4	0	0	---	0.00	29.856 
04:25	55.6	55.6	55.6	92	53.3	0	0	---	0.00	29.856 
04:30	55.4	55.4	55.4	92	53.1	0	0	---	0.00	29.860 
04:35	55.1	55.1	55.1	92	52.8	0	0	---	0.00	29.860 
04:40	55.0	55.0	55.0	92	52.7	0	0	---	0.00	29.860 
04:45	54.7	54.7	54.7	92	52.4	0	0	---	0.00	29.858 
04:50	54.5	54.5	54.5	92	52.2	0	0	---	0.00	29.858 
04:55	54.4	54.4	54.4	93	52.4	0	0	---	0.00	29.858 
05:00	54.1	54.1	54.1	92	51.8	0	0	---	0.00	29.861 
05:05	53.8	53.8	53.8	92	51.5	0	0	---	0.00	29.861 
05:10	53.5	53.5	53.5	92	51.2	0	0	---	0.00	29.861 
05:15	53.2	53.2	53.2	92	50.9	0	0	---	0.00	29.865 
05:20	53.1	53.1	53.1	92	50.8	0	0	---	0.00	29.865 
05:25	52.9	52.9	52.9	93	50.9	0	0	---	0.00	29.865 
05:30	52.9	52.9	52.9	93	50.9	0	0	---	0.00	29.865 
05:35	52.9	52.9	52.9	93	50.9	0	0	---	0.00	29.865 
05:40	52.8	52.8	52.8	93	50.8	0	0	---	0.00	29.865 
05:45	52.5	52.5	52.5	93	50.5	0	0	---	0.00	29.868 
05:50	52.3	52.3	52.3	93	50.3	0	0	---	0.00	29.868 
05:55	51.9	51.9	51.9	93	49.9	0	0	---	0.00	29.868 
06:00	51.6	51.6	51.6	93	49.6	0	0	---	0.00	29.874 
06:05	51.3	51.3	51.3	93	49.3	0	0	---	0.00	29.874 
06:10	51.0	51.0	51.0	93	49.0	0	0	---	0.00	29.874 
06:15	50.8	50.8	50.8	93	48.8	0	0	---	0.00	29.879 
06:20	50.7	50.7	50.7	93	48.7	0	0	---	0.00	29.879 
06:25	50.5	50.5	50.5	93	48.6	0	0	---	0.00	29.879 
06:30	50.5	50.5	50.5	94	48.8	0	0	---	0.00	29.875 
06:35	50.4	50.4	50.4	94	48.7	0	0	---	0.00	29.875 
06:40	50.5	50.5	50.5	94	48.8	0	0	---	0.00	29.875 
06:45	50.5	50.5	50.5	94	48.8	0	0	---	0.00	29.875 
06:50	50.5	50.5	50.5	94	48.8	0	0	---	0.00	29.875 
06:55	50.4	50.4	50.4	94	48.7	0	0	---	0.00	29.875 
07:00	50.8	50.8	50.8	94	49.1	0	0	---	0.00	29.880 
07:05	52.0	52.0	52.0	95	50.6	0	0	---	0.00	29.880 
07:10	53.1	53.1	53.1	95	51.7	0	0	---	0.00	29.880 
07:15	53.5	53.5	53.5	96	52.4	0	1	248	0.00	29.882 
07:20	53.6	53.6	53.6	96	52.5	0	1	248	0.00	29.882 
07:25	53.6	53.6	53.6	96	52.5	0	0	---	0.00	29.882 
07:30	53.5	53.5	53.5	96	52.4	0	0	---	0.00	29.882 
07:35	53.5	53.5	53.5	96	52.4	0	0	---	0.00	29.882 
07:40	53.5	53.5	53.5	95	52.1	0	0	---	0.00	29.882 
07:45	53.5	53.5	53.5	95	52.1	0	0	---	0.00	29.890 
07:50	53.5	53.5	53.5	96	52.4	0	0	---	0.00	29.890 
07:55	53.6	53.6	53.6	96	52.5	0	1	248	0.00	29.890 
08:00	53.9	53.9	53.9	96	52.8	0	1	248	0.00	29.893 
08:05	54.4	54.4	54.4	96	53.3	0	2	248	0.00	29.893 
08:10	54.5	54.5	54.5	96	53.4	0	1	248	0.00	29.893 
08:15	54.5	54.5	54.5	96	53.4	1	2	248	0.00	29.896 
08:20	54.8	54.8	54.8	95	53.4	1	2	248	0.00	29.896 
08:25	55.0	55.0	55.0	96	53.9	1	3	248	0.00	29.896 
08:30	55.3	55.3	55.3	95	53.9	1	3	248	0.00	29.899 
08:35	55.7	55.7	55.7	95	54.3	1	3	248	0.00	29.899 
08:40	55.9	55.9	55.9	95	54.5	0	2	248	0.00	29.899 
08:45	56.2	56.2	56.2	95	54.8	1	2	248	0.00	29.909 
08:50	56.5	56.5	56.5	94	54.8	1	3	248	0.00	29.909 
08:55	56.9	56.9	56.9	89	53.7	2	3	248	0.00	29.909 
09:00	57.6	57.6	57.6	84	52.8	2	3	248	0.00	29.905 
09:05	58.4	58.4	58.4	84	53.6	1	2	248	0.00	29.905 
09:10	59.0	59.0	59.0	81	53.2	1	3	248	0.00	29.905 
09:15	59.8	59.8	59.8	80	53.6	1	3	248	0.00	29.897 
09:20	60.2	60.2	60.2	78	53.3	1	3	248	0.00	29.897 
09:25	60.9	60.9	60.9	76	53.3	1	3	248	0.00	29.897 
09:30	61.3	61.3	61.3	73	52.6	1	3	248	0.00	29.893 
09:35	62.0	62.0	62.0	73	53.2	1	2	248	0.00	29.893 
09:40	62.3	62.3	62.3	69	52.0	1	3	248	0.00	29.893 
09:45	62.6	62.6	62.6	68	51.9	1	4	248	0.00	29.895 
09:50	62.7	62.7	62.7	66	51.2	2	4	248	0.00	29.895 
09:55	63.2	63.2	63.2	65	51.2	1	3	248	0.00	29.895 
10:00	63.7	63.7	63.7	67	52.5	0	2	248	0.00	29.891 
10:05	64.3	64.3	64.3	67	53.1	0	3	248	0.00	29.891 
10:10	64.8	64.8	64.8	65	52.8	1	2	248	0.00	29.891 
10:15	65.3	65.3	65.3	65	53.2	0	1	248	0.00	29.891 
10:20	65.5	65.5	65.5	61	51.7	1	3	248	0.00	29.891 
10:25	66.0	66.0	66.0	65	53.9	1	3	248	0.00	29.891 
10:30	66.6	66.6	66.6	59	51.8	1	2	248	0.00	29.890 
10:35	67.3	67.3	67.3	60	52.9	0	3	248	0.00	29.890 
10:40	67.8	67.8	67.8	56	51.5	0	3	248	0.00	29.890 
10:45	68.3	68.3	68.3	55	51.5	1	3	248	0.00	29.889 
10:50	68.9	68.9	68.9	54	51.6	0	1	248	0.00	29.889 
10:55	69.9	69.9	69.9	54	52.5	0	2	248	0.00	29.889 
11:00	70.3	70.3	70.3	53	52.3	0	2	248	0.00	29.889 
11:05	70.8	70.8	70.8	50	51.2	1	2	225	0.00	29.889 
11:10	71.3	71.3	71.3	51	52.2	0	2	225	0.00	29.889 
11:15	71.3	71.3	71.3	50	51.7	1	2	225	0.00	29.887 
11:20	71.8	71.8	71.8	48	51.0	1	3	112	0.00	29.887 
11:25	72.0	72.0	72.0	49	51.8	1	3	112	0.00	29.887 
11:30	72.1	72.1	72.1	51	53.0	1	3	135	0.00	29.888 
11:35	72.1	72.1	72.1	45	49.6	1	4	112	0.00	29.888 
11:40	71.8	71.8	71.8	44	48.7	2	4	112	0.00	29.888 
11:45	71.8	71.8	71.8	44	48.7	1	4	112	0.00	29.886 
11:50	71.8	71.8	71.8	40	46.2	1	4	248	0.00	29.886 
11:55	71.8	71.8	71.8	44	48.7	1	3	248	0.00	29.886 
12:00	72.0	72.0	72.0	43	48.3	1	3	202	0.00	29.881 
12:05	72.1	72.1	72.1	42	47.7	2	4	90	0.00	29.881 
12:10	72.3	72.3	72.3	45	49.8	1	4	112	0.00	29.881 
12:15	72.7	72.7	72.7	43	48.9	1	3	112	0.00	29.876 
12:20	72.8	72.8	72.8	36	44.3	1	3	112	0.00	29.876 
12:25	73.3	73.3	73.3	42	48.8	1	2	112	0.00	29.876 
12:30	73.7	73.7	73.7	38	46.5	1	3	112	0.00	29.871 
12:35	74.0	74.0	74.0	43	50.1	1	6	112	0.00	29.871 
12:40	74.2	74.2	74.2	41	49.0	1	4	248	0.00	29.871 
12:45	74.6	74.6	74.6	35	45.1	1	3	90	0.00	29.865 
12:50	74.7	74.7	74.7	40	48.8	1	5	68	0.00	29.865 
12:55	74.7	74.7	74.7	36	46.0	1	3	315	0.00	29.865 
13:00	75.3	75.3	77.4	35	45.7	1	4	292	0.00	29.858 
13:05	75.6	75.6	77.6	37	47.5	1	3	90	0.00	29.858 
13:10	75.4	75.4	76.9	28	40.0	2	5	270	0.00	29.858 
13:15	75.3	75.3	77.2	33	44.2	2	4	90	0.00	29.856 
13:20	75.3	75.3	77.0	30	41.7	1	4	68	0.00	29.856 
13:25	75.1	75.1	76.8	28	39.8	1	3	90	0.00	29.856 
13:30	75.1	75.1	77.2	33	44.0	0	2	90	0.00	29.854 
13:35	75.3	75.3	77.1	31	42.6	1	3	270	0.00	29.854 
13:40	75.3	75.3	77.2	32	43.4	1	3	112	0.00	29.854 
13:45	75.1	75.1	77.2	34	44.8	1	2	112	0.00	29.850 
13:50	74.9	74.9	74.9	33	43.8	1	3	248	0.00	29.850 
13:55	74.9	74.9	74.9	33	43.8	1	5	248	0.00	29.850 
14:00	75.1	75.1	77.0	31	42.4	1	4	248	0.00	29.845 
14:05	75.1	75.1	77.0	30	41.5	1	3	248	0.00	29.845 
14:10	75.4	75.4	77.1	30	41.8	1	4	248	0.00	29.845 
14:15	75.4	75.4	77.4	35	45.8	1	3	270	0.00	29.848 
14:20	75.1	75.1	76.8	28	39.8	1	3	225	0.00	29.848 
14:25	75.1	75.1	77.3	35	45.6	1	2	270	0.00	29.848 
14:30	75.1	75.1	76.8	28	39.8	1	4	270	0.00	29.846 
14:35	75.1	75.1	76.8	28	39.8	1	3	248	0.00	29.846 
14:40	74.9	74.9	74.9	28	39.6	2	4	112	0.00	29.846 
14:45	74.7	74.7	74.7	34	44.4	1	3	112	0.00	29.844 
14:50	74.7	74.7	74.7	29	40.3	2	5	202	0.00	29.844 
14:55	74.6	74.6	74.6	29	40.2	1	3	248	0.00	29.844 
15:00	74.6	74.6	74.6	35	45.1	1	4	248	0.00	29.843 
15:05	74.2	74.2	74.2	31	41.6	2	5	248	0.00	29.843 
15:10	74.4	74.4	74.4	32	42.6	0	2	248	0.00	29.843 
15:15	74.6	74.6	74.6	35	45.1	1	3	270	0.00	29.843 
15:20	74.4	74.4	74.4	30	40.9	2	3	248	0.00	29.843 
15:25	74.4	74.4	74.4	31	41.8	1	5	248	0.00	29.843 
15:30	74.0	74.0	74.0	30	40.6	2	3	248	0.00	29.838 
15:35	73.9	73.9	73.9	31	41.3	0	3	248	0.00	29.838 
15:40	73.9	73.9	73.9	31	41.3	1	3	248	0.00	29.838 
15:45	73.7	73.7	73.7	34	43.6	1	3	248	0.00	29.834 
15:50	73.7	73.7	73.7	32	42.0	1	4	248	0.00	29.834 
15:55	73.3	73.3	73.3	32	41.6	2	4	248	0.00	29.834 
16:00	73.2	73.2	73.2	31	40.7	1	5	248	0.00	29.831 
16:05	73.2	73.2	73.2	31	40.7	1	2	248	0.00	29.831 
16:10	73.0	73.0	73.0	30	39.7	0	2	248	0.00	29.831 
16:15	72.8	72.8	72.8	32	41.2	0	2	292	0.00	29.825 
16:20	72.7	72.7	72.7	32	41.1	0	2	292	0.00	29.825 
16:25	72.8	72.8	72.8	33	42.0	0	2	292	0.00	29.825 
16:30	72.8	72.8	72.8	35	43.5	0	2	248	0.00	29.820 
16:35	72.7	72.7	72.7	35	43.5	0	1	248	0.00	29.820 
16:40	72.3	72.3	72.3	37	44.6	0	1	248	0.00	29.820 
16:45	72.1	72.1	72.1	38	45.1	0	2	248	0.00	29.820 
16:50	72.1	72.1	72.1	34	42.2	1	2	248	0.00	29.820 
16:55	72.0	72.0	72.0	33	41.3	1	3	248	0.00	29.820 
17:00	71.8	71.8	71.8	35	42.7	0	2	248	0.00	29.817 
17:05	71.8	71.8	71.8	35	42.7	0	1	248	0.00	29.817 
17:10	71.8	71.8	71.8	36	43.4	0	1	248	0.00	29.817 
17:15	71.8	71.8	71.8	35	42.7	0	2	248	0.00	29.820 
17:20	71.6	71.6	71.6	35	42.5	0	2	248	0.00	29.820 
17:25	71.5	71.5	71.5	34	41.6	0	1	248	0.00	29.820 
17:30	71.3	71.3	71.3	33	40.7	0	2	248	0.00	29.820 
17:35	71.3	71.3	71.3	33	40.7	0	1	338	0.00	29.820 
17:40	71.3	71.3	71.3	35	42.2	0	1	338	0.00	29.820 
17:45	71.3	71.3	71.3	34	41.5	1	3	338	0.00	29.821 
17:50	71.3	71.3	71.3	35	42.2	0	2	270	0.00	29.821 
17:55	71.1	71.1	71.1	33	40.5	1	3	248	0.00	29.821 
18:00	71.1	71.1	71.1	33	40.5	1	3	248	0.00	29.819 
18:05	71.1	71.1	71.1	31	38.9	1	2	248	0.00	29.819 
18:10	70.9	70.9	70.9	32	39.6	1	2	315	0.00	29.819 
18:15	70.9	70.9	70.9	33	40.3	0	1	315	0.00	29.817 
18:20	70.9	70.9	70.9	32	39.6	0	2	292	0.00	29.817 
18:25	70.8	70.8	70.8	32	39.5	0	2	292	0.00	29.817 
18:30	70.8	70.8	70.8	32	39.5	1	3	248	0.00	29.818 
18:35	70.6	70.6	70.6	32	39.3	1	2	248	0.00	29.818 
18:40	70.4	70.4	70.4	33	39.9	0	1	292	0.00	29.818 
18:45	70.3	70.3	70.3	32	39.0	1	2	292	0.00	29.819 
18:50	70.3	70.3	70.3	31	38.2	1	2	292	0.00	29.819 
18:55	70.3	70.3	70.3	31	38.2	0	2	292	0.00	29.819 
19:00	70.1	70.1	70.1	31	38.1	0	2	270	0.00	29.815 
19:05	70.1	70.1	70.1	32	38.9	0	1	270	0.00	29.815 
19:10	69.9	69.9	69.9	33	39.5	0	2	270	0.00	29.815 
19:15	69.9	69.9	69.9	33	39.5	1	2	270	0.00	29.807 
19:20	69.9	69.9	69.9	33	39.5	0	1	270	0.00	29.807 
19:25	69.8	69.8	69.8	34	40.2	0	1	270	0.00	29.807 
19:30	69.6	69.6	69.6	35	40.7	0	1	270	0.00	29.808 
19:35	69.6	69.6	69.6	36	41.5	0	1	270	0.00	29.808 
19:40	69.4	69.4	69.4	36	41.3	0	1	270	0.00	29.808 
19:45	69.3	69.3	69.3	36	41.2	0	1	270	0.00	29.807 
19:50	68.9	68.9	68.9	37	41.5	0	1	270	0.00	29.807 
19:55	68.8	68.8	68.8	36	40.7	0	1	270	0.00	29.807 
20:00	68.4	68.4	68.4	37	41.1	0	0	---	0.00	29.808 
20:05	68.3	68.3	68.3	37	41.0	0	0	---	0.00	29.808 
20:10	68.1	68.1	68.1	37	40.8	0	0	---	0.00	29.808 
20:15	67.8	67.8	67.8	38	41.3	0	0	---	0.00	29.804 
20:20	67.4	67.4	67.4	39	41.6	0	0	---	0.00	29.804 
20:25	67.1	67.1	67.1	40	42.0	0	0	---	0.00	29.804 
20:30	66.6	66.6	66.6	41	42.2	0	0	---	0.00	29.814 
20:35	66.1	66.1	66.1	41	41.7	0	0	---	0.00	29.814 
20:40	65.6	65.6	65.6	42	41.9	0	0	---	0.00	29.814 
20:45	65.2	65.2	65.2	42	41.5	0	0	---	0.00	29.818 
20:50	64.7	64.7	64.7	43	41.7	0	0	---	0.00	29.818 
20:55	64.0	64.0	64.0	44	41.6	0	0	---	0.00	29.818 
21:00	63.5	63.5	63.5	46	42.3	0	0	---	0.00	29.817 
21:05	63.1	63.1	63.1	48	43.1	0	0	---	0.00	29.817 
21:10	62.6	62.6	62.6	49	43.2	0	0	---	0.00	29.817 
21:15	62.3	62.3	62.3	49	42.9	0	0	---	0.00	29.817 
21:20	62.0	62.0	62.0	50	43.1	0	0	---	0.00	29.817 
21:25	61.6	61.6	61.6	50	42.8	0	0	---	0.00	29.817 
21:30	61.3	61.3	61.3	50	42.5	0	0	---	0.00	29.821 
21:35	61.2	61.2	61.2	51	42.9	0	0	---	0.00	29.821 
21:40	61.2	61.2	61.2	50	42.4	0	1	270	0.00	29.821 
21:45	61.3	61.3	61.3	48	41.4	0	2	315	0.00	29.832 
21:50	62.3	62.3	62.3	46	41.3	0	2	315	0.00	29.832 
21:55	62.9	62.9	62.9	45	41.2	0	1	315	0.00	29.832 
22:00	62.9	62.9	62.9	44	40.6	0	2	315	0.00	29.835 
22:05	63.1	63.1	63.1	43	40.2	0	1	292	0.00	29.835 
22:10	62.9	62.9	62.9	44	40.6	0	1	292	0.00	29.835 
22:15	62.6	62.6	62.6	44	40.4	0	1	292	0.00	29.837 
22:20	62.1	62.1	62.1	44	39.9	0	0	---	0.00	29.837 
22:25	61.8	61.8	61.8	44	39.7	0	0	---	0.00	29.837 
22:30	61.5	61.5	61.5	44	39.4	0	1	292	0.00	29.841 
22:35	61.2	61.2	61.2	44	39.1	0	1	292	0.00	29.841 
22:40	60.9	60.9	60.9	44	38.8	0	1	292	0.00	29.841 
22:45	60.7	60.7	60.7	45	39.2	0	0	---	0.00	29.846 
22:50	60.4	60.4	60.4	45	39.0	0	1	292	0.00	29.846 
22:55	60.1	60.1	60.1	45	38.7	0	0	---	0.00	29.846 
23:00	59.6	59.6	59.6	46	38.8	0	0	---	0.00	29.847 
23:05	59.3	59.3	59.3	46	38.5	0	0	---	0.00	29.847 
23:10	59.0	59.0	59.0	47	38.8	0	0	---	0.00	29.847 
23:15	58.6	58.6	58.6	47	38.4	0	0	---	0.00	29.848 
23:20	58.3	58.3	58.3	49	39.2	0	0	---	0.00	29.848 
23:25	58.0	58.0	58.0	49	38.9	0	0	---	0.00	29.848 
23:30	58.0	58.0	58.0	49	38.9	0	1	292	0.00	29.848 
23:35	57.8	57.8	57.8	50	39.3	0	0	---	0.00	29.848 
23:40	57.5	57.5	57.5	51	39.5	0	0	---	0.00	29.848 
23:45	57.2	57.2	57.2	51	39.2	0	0	---	0.00	29.850 
23:50	57.0	57.0	57.0	51	39.1	0	0	---	0.00	29.850 
23:55	56.7	56.7	56.7	52	39.3	0	0	---	0.00	29.850 

CoCoRaHS
IN-AL-39
A2 Web Hosting
Creative Commons License
GoDaddy
Look for:

loaded 2017-10-16 18:18:24 • last modified 2010-11-18 10:43:29
Privacy PolicyDisclaimer
• wx.awcolley.com is powered by PmWiki v.2002016 •
• all content (unless otherwise noted) © 2017 A W Colley